createdAt,value
2022-10-22T00:00:55.444Z,12.799999
2022-10-22T00:01:55.611Z,12.88
2022-10-22T00:02:55.789Z,12.639999
2022-10-22T00:03:55.917Z,12.4
2022-10-22T00:04:56.061Z,12.24
2022-10-22T00:05:56.221Z,12.32
2022-10-22T00:06:56.326Z,12.32
2022-10-22T00:07:56.468Z,12.639999
2022-10-22T00:08:56.667Z,12.48
2022-10-22T00:09:56.776Z,12.32
2022-10-22T00:10:56.914Z,12.24
2022-10-22T00:11:57.030Z,12.24
2022-10-22T00:12:57.173Z,12
2022-10-22T00:13:57.293Z,12.08
2022-10-22T00:14:57.426Z,12.32
2022-10-22T00:15:57.528Z,12.24
2022-10-22T00:16:57.694Z,12.24
2022-10-22T00:17:57.844Z,12.48
2022-10-22T00:18:57.994Z,12.719999
2022-10-22T00:19:58.146Z,12.639999
2022-10-22T00:20:58.300Z,12.719999
2022-10-22T00:21:58.446Z,12.88
2022-10-22T00:22:58.594Z,12.639999
2022-10-22T00:23:58.752Z,12.48
2022-10-22T00:24:58.853Z,12.48
2022-10-22T00:25:58.955Z,12.719999
2022-10-22T00:26:59.103Z,12.4
2022-10-22T00:27:59.203Z,12.48
2022-10-22T00:28:59.356Z,12.4
2022-10-22T00:29:59.507Z,12.48
2022-10-22T00:30:59.644Z,12.4
2022-10-22T00:31:59.763Z,12.32
2022-10-22T00:32:59.913Z,12.639999
2022-10-22T00:34:00.063Z,12.719999
2022-10-22T00:35:00.207Z,12.639999
2022-10-22T00:36:00.955Z,12.48
2022-10-22T00:37:00.471Z,12.48
2022-10-22T00:38:00.569Z,12.4
2022-10-22T00:39:00.711Z,12.719999
2022-10-22T00:40:00.826Z,12.719999
2022-10-22T00:42:01.775Z,12.719999
2022-10-22T00:43:01.267Z,12.639999
2022-10-22T00:44:01.423Z,12.88
2022-10-22T00:45:01.580Z,12.48
2022-10-22T00:46:01.724Z,12.4
2022-10-22T00:47:01.875Z,12.799999
2022-10-22T00:48:02.035Z,12.88
2022-10-22T00:49:02.188Z,12.639999
2022-10-22T00:51:04.412Z,12.719999
2022-10-22T00:52:02.693Z,12.719999
2022-10-22T00:53:02.848Z,12.799999
2022-10-22T00:54:02.957Z,12.88
2022-10-22T00:55:03.063Z,12.88
2022-10-22T00:56:03.190Z,12.799999
2022-10-22T00:57:03.352Z,12.799999
2022-10-22T00:58:03.508Z,12.639999
2022-10-22T00:59:03.690Z,12.719999
2022-10-22T01:00:03.808Z,12.719999
2022-10-22T01:01:04.011Z,12.799999
2022-10-22T01:02:04.053Z,13.04
2022-10-22T01:03:04.213Z,13.12
2022-10-22T01:04:04.361Z,13.04
2022-10-22T01:05:04.514Z,12.88
2022-10-22T01:06:04.666Z,12.719999
2022-10-22T01:07:04.817Z,12.719999
2022-10-22T01:08:05.002Z,12.719999
2022-10-22T01:09:05.166Z,12.799999
2022-10-22T01:10:05.275Z,12.799999
2022-10-22T01:11:05.435Z,12.799999
2022-10-22T01:12:05.577Z,12.719999
2022-10-22T01:13:05.739Z,12.88
2022-10-22T01:14:05.884Z,12.719999
2022-10-22T01:15:06.039Z,12.719999
2022-10-22T01:16:06.126Z,13.12
2022-10-22T01:17:06.609Z,12.88
2022-10-22T01:18:06.389Z,12.88
2022-10-22T01:19:06.544Z,12.799999
2022-10-22T01:20:06.691Z,12.719999
2022-10-22T01:21:06.845Z,12.799999
2022-10-22T01:22:06.991Z,13.04
2022-10-22T01:23:07.100Z,12.88
2022-10-22T01:24:07.251Z,12.88
2022-10-22T01:25:07.403Z,13.04
2022-10-22T01:26:07.562Z,13.28
2022-10-22T01:27:07.668Z,13.04
2022-10-22T01:28:07.796Z,12.719999
2022-10-22T01:29:07.911Z,12.639999
2022-10-22T01:30:08.062Z,13.04
2022-10-22T01:31:08.202Z,13.04
2022-10-22T01:32:08.314Z,13.04
2022-10-22T01:33:08.464Z,12.88
2022-10-22T01:34:08.570Z,12.799999
2022-10-22T01:35:08.680Z,12.719999
2022-10-22T01:36:08.817Z,12.719999
2022-10-22T01:37:08.971Z,12.799999
2022-10-22T01:38:09.121Z,12.88
2022-10-22T01:39:10.063Z,12.799999
2022-10-22T01:40:09.431Z,12.88
2022-10-22T01:41:09.579Z,13.12
2022-10-22T01:42:10.415Z,12.88
2022-10-22T01:43:10.270Z,12.799999
2022-10-22T01:44:10.423Z,12.799999
2022-10-22T01:45:10.764Z,12.799999
2022-10-22T01:46:10.384Z,12.88
2022-10-22T01:47:10.521Z,13.04
2022-10-22T01:48:10.632Z,13.12
2022-10-22T01:49:10.732Z,13.12
2022-10-22T01:50:10.895Z,12.88
2022-10-22T01:51:10.991Z,12.88
2022-10-22T01:52:11.154Z,12.799999
2022-10-22T01:53:11.248Z,13.04
2022-10-22T01:54:11.360Z,12.88
2022-10-22T01:55:11.505Z,12.88
2022-10-22T01:56:11.615Z,13.04
2022-10-22T01:57:11.767Z,13.04
2022-10-22T01:58:11.859Z,13.04
2022-10-22T01:59:12.008Z,13.12
2022-10-22T02:00:12.178Z,12.88
2022-10-22T02:01:12.379Z,13.04
2022-10-22T02:02:12.486Z,13.04
2022-10-22T02:03:12.624Z,13.04
2022-10-22T02:04:12.784Z,13.04
2022-10-22T02:05:12.921Z,13.12
2022-10-22T02:06:13.069Z,13.12
2022-10-22T02:07:13.219Z,13.12
2022-10-22T02:08:13.323Z,13.12
2022-10-22T02:09:13.546Z,13.12
2022-10-22T02:10:13.627Z,13.12
2022-10-22T02:11:13.775Z,13.04
2022-10-22T02:12:13.934Z,13.04
2022-10-22T02:13:14.085Z,13.04
2022-10-22T02:14:14.233Z,13.12
2022-10-22T02:15:14.388Z,13.04
2022-10-22T02:16:14.526Z,13.2
2022-10-22T02:17:14.702Z,13.2
2022-10-22T02:18:14.846Z,13.12
2022-10-22T02:19:14.991Z,13.12
2022-10-22T02:20:15.146Z,13.12
2022-10-22T02:21:15.300Z,13.12
2022-10-22T02:22:15.450Z,13.2
2022-10-22T02:23:15.597Z,13.2
2022-10-22T02:24:15.748Z,13.2
2022-10-22T02:25:15.901Z,13.2
2022-10-22T02:26:16.057Z,13.2
2022-10-22T02:27:16.213Z,13.2
2022-10-22T02:28:16.360Z,13.28
2022-10-22T02:29:16.468Z,13.28
2022-10-22T02:31:16.756Z,13.44
2022-10-22T02:32:16.901Z,13.28
2022-10-22T02:33:17.075Z,13.28
2022-10-22T02:34:17.225Z,13.2
2022-10-22T02:35:17.369Z,13.28
2022-10-22T02:36:17.525Z,13.2
2022-10-22T02:37:17.668Z,13.2
2022-10-22T02:38:17.823Z,13.2
2022-10-22T02:39:17.928Z,13.28
2022-10-22T02:40:18.079Z,13.28
2022-10-22T02:41:18.231Z,13.28
2022-10-22T02:42:18.376Z,13.28
2022-10-22T02:43:18.523Z,13.2
2022-10-22T02:44:18.676Z,13.44
2022-10-22T02:45:18.789Z,13.28
2022-10-22T02:46:18.926Z,13.2
2022-10-22T02:47:19.096Z,13.12
2022-10-22T02:48:22.433Z,13.2
2022-10-22T02:49:19.381Z,13.12
2022-10-22T02:50:19.490Z,13.12
2022-10-22T02:51:19.646Z,13.12
2022-10-22T02:52:19.804Z,13.2
2022-10-22T02:53:19.952Z,13.12
2022-10-22T02:54:20.059Z,13.12
2022-10-22T02:55:20.199Z,13.2
2022-10-22T02:56:20.353Z,13.12
2022-10-22T02:58:21.172Z,13.04
2022-10-22T02:59:20.697Z,12.88
2022-10-22T03:00:20.862Z,12.88
2022-10-22T03:01:21.060Z,12.799999
2022-10-22T03:02:21.166Z,12.799999
2022-10-22T03:03:21.315Z,12.719999
2022-10-22T03:04:21.460Z,12.719999
2022-10-22T03:05:21.625Z,12.639999
2022-10-22T03:06:21.792Z,12.719999
2022-10-22T03:07:21.917Z,12.719999
2022-10-22T03:08:22.068Z,12.48
2022-10-22T03:09:24.029Z,12.48
2022-10-22T03:10:22.377Z,12.48
2022-10-22T03:11:22.527Z,12.4
2022-10-22T03:12:22.669Z,12.4
2022-10-22T03:13:22.836Z,12.4
2022-10-22T03:14:22.997Z,12.4
2022-10-22T03:15:23.114Z,12.48
2022-10-22T03:16:23.224Z,12.48
2022-10-22T03:17:23.328Z,12.639999
2022-10-22T03:18:23.478Z,12.639999
2022-10-22T03:19:23.595Z,12.48
2022-10-22T03:20:23.740Z,12.48
2022-10-22T03:21:23.894Z,12.719999
2022-10-22T03:22:24.018Z,12.719999
2022-10-22T03:23:24.152Z,12.639999
2022-10-22T03:24:24.307Z,12.639999
2022-10-22T03:25:24.455Z,12.639999
2022-10-22T03:26:24.603Z,12.4
2022-10-22T03:27:24.753Z,12.4
2022-10-22T03:28:24.903Z,12.4
2022-10-22T03:29:25.078Z,12.32
2022-10-22T03:30:25.211Z,12.4
2022-10-22T03:31:25.351Z,12.24
2022-10-22T03:32:25.519Z,12.32
2022-10-22T03:33:25.617Z,12.32
2022-10-22T03:34:25.769Z,12.719999
2022-10-22T03:35:25.921Z,12.48
2022-10-22T03:36:26.028Z,12.4
2022-10-22T03:37:26.175Z,12.32
2022-10-22T03:38:26.323Z,12.32
2022-10-22T03:39:26.480Z,12.24
2022-10-22T03:40:26.579Z,12.24
2022-10-22T03:41:26.741Z,12.24
2022-10-22T03:42:26.886Z,12.08
2022-10-22T03:43:26.985Z,12.24
2022-10-22T03:44:27.138Z,12.24
2022-10-22T03:45:27.286Z,12.32
2022-10-22T03:46:27.378Z,12.24
2022-10-22T03:47:27.529Z,12.24
2022-10-22T03:48:27.705Z,12.4
2022-10-22T03:49:27.798Z,12.48
2022-10-22T03:50:27.950Z,12.4
2022-10-22T03:51:28.094Z,12.32
2022-10-22T03:52:28.271Z,12.32
2022-10-22T03:53:28.403Z,12.24
2022-10-22T03:54:28.562Z,12.32
2022-10-22T03:55:28.675Z,12.32
2022-10-22T03:56:28.859Z,12.4
2022-10-22T03:57:28.970Z,12.32
2022-10-22T03:58:29.127Z,12.24
2022-10-22T03:59:29.267Z,12.4
2022-10-22T04:00:29.378Z,12.4
2022-10-22T04:01:29.592Z,12.32
2022-10-22T04:02:29.666Z,12.24
2022-10-22T04:03:29.814Z,12.24
2022-10-22T04:04:29.966Z,12.32
2022-10-22T04:05:30.124Z,12.32
2022-10-22T04:06:30.281Z,12.4
2022-10-22T04:07:30.425Z,12.24
2022-10-22T04:08:30.544Z,12.32
2022-10-22T04:09:30.674Z,12.24
2022-10-22T04:10:30.836Z,12.24
2022-10-22T04:11:30.977Z,12.08
2022-10-22T04:12:31.137Z,12.24
2022-10-22T04:13:31.281Z,12.24
2022-10-22T04:14:31.441Z,12.32
2022-10-22T04:15:31.603Z,12.32
2022-10-22T04:16:31.732Z,12.32
2022-10-22T04:17:31.889Z,12.32
2022-10-22T04:18:31.998Z,12.24
2022-10-22T04:19:32.150Z,12.24
2022-10-22T04:20:32.261Z,12.24
2022-10-22T04:21:32.400Z,12.24
2022-10-22T04:22:32.555Z,12.32
2022-10-22T04:23:32.718Z,12.24
2022-10-22T04:24:32.854Z,12.32
2022-10-22T04:25:32.961Z,12.48
2022-10-22T04:26:33.108Z,12.48
2022-10-22T04:27:33.217Z,12.48
2022-10-22T04:28:33.362Z,12.4
2022-10-22T04:29:33.510Z,12.4
2022-10-22T04:30:33.672Z,12.48
2022-10-22T04:31:33.756Z,12.639999
2022-10-22T04:32:33.918Z,12.799999
2022-10-22T04:33:34.074Z,12.799999
2022-10-22T04:34:34.170Z,12.719999
2022-10-22T04:35:34.321Z,12.799999
2022-10-22T04:36:34.469Z,12.719999
2022-10-22T04:37:34.624Z,12.799999
2022-10-22T04:38:34.775Z,13.04
2022-10-22T04:39:34.935Z,12.639999
2022-10-22T04:40:35.077Z,12.719999
2022-10-22T04:41:35.219Z,12.88
2022-10-22T04:42:35.432Z,13.04
2022-10-22T04:43:35.546Z,12.88
2022-10-22T04:44:35.685Z,13.12
2022-10-22T04:45:35.844Z,13.12
2022-10-22T04:46:35.977Z,13.04
2022-10-22T04:47:36.145Z,12.799999
2022-10-22T04:48:36.300Z,12.719999
2022-10-22T04:49:36.454Z,12.719999
2022-10-22T04:50:36.590Z,13.04
2022-10-22T04:51:36.753Z,12.88
2022-10-22T04:52:36.901Z,12.719999
2022-10-22T04:53:37.002Z,12.88
2022-10-22T04:54:37.154Z,12.799999
2022-10-22T04:55:37.324Z,12.799999
2022-10-22T04:56:37.394Z,12.88
2022-10-22T04:57:37.666Z,12.719999
2022-10-22T04:58:37.715Z,12.88
2022-10-22T04:59:37.903Z,12.88
2022-10-22T05:00:38.105Z,12.88
2022-10-22T05:01:39.854Z,13.04
2022-10-22T05:02:38.317Z,13.2
2022-10-22T05:03:38.460Z,13.28
2022-10-22T05:04:38.618Z,13.679999
2022-10-22T05:05:38.783Z,13.599999
2022-10-22T05:06:38.924Z,13.599999
2022-10-22T05:07:39.162Z,13.44
2022-10-22T05:08:39.199Z,13.44
2022-10-22T05:09:39.327Z,13.2
2022-10-22T05:10:39.440Z,13.04
2022-10-22T05:11:39.583Z,12.88
2022-10-22T05:12:39.740Z,13.12
2022-10-22T05:13:39.898Z,13.04
2022-10-22T05:14:42.603Z,12.88
2022-10-22T05:15:40.181Z,13.12
2022-10-22T05:16:40.396Z,13.04
2022-10-22T05:17:40.688Z,13.04
2022-10-22T05:18:40.594Z,12.88
2022-10-22T05:19:40.748Z,13.2
2022-10-22T05:20:40.864Z,13.44
2022-10-22T05:21:41.045Z,13.599999
2022-10-22T05:22:41.163Z,13.28
2022-10-22T05:23:41.301Z,13.28
2022-10-22T05:24:41.451Z,13.2
2022-10-22T05:25:41.543Z,13.2
2022-10-22T05:26:41.709Z,13.12
2022-10-22T05:27:42.203Z,13.04
2022-10-22T05:28:42.021Z,13.12
2022-10-22T05:29:42.167Z,13.12
2022-10-22T05:30:42.254Z,13.44
2022-10-22T05:31:42.421Z,13.44
2022-10-22T05:32:42.572Z,13.28
2022-10-22T05:33:42.721Z,13.28
2022-10-22T05:34:42.870Z,13.28
2022-10-22T05:35:46.571Z,13.28
2022-10-22T05:36:43.169Z,13.2
2022-10-22T05:37:43.563Z,13.12
2022-10-22T05:38:43.477Z,13.12
2022-10-22T05:39:43.617Z,13.12
2022-10-22T05:40:43.716Z,13.12
2022-10-22T05:41:43.817Z,13.44
2022-10-22T05:42:43.986Z,13.2
2022-10-22T05:43:44.135Z,13.44
2022-10-22T05:44:44.234Z,13.44
2022-10-22T05:45:44.381Z,13.599999
2022-10-22T05:46:44.542Z,13.679999
2022-10-22T05:47:44.654Z,13.679999
2022-10-22T05:48:44.798Z,13.599999
2022-10-22T05:49:44.947Z,13.52
2022-10-22T05:50:45.101Z,13.52
2022-10-22T05:51:45.249Z,13.44
2022-10-22T05:52:45.405Z,13.84
2022-10-22T05:53:45.506Z,13.679999
2022-10-22T05:54:45.658Z,13.679999
2022-10-22T05:55:45.814Z,13.679999
2022-10-22T05:56:45.973Z,13.679999
2022-10-22T05:57:46.112Z,13.679999
2022-10-22T05:58:46.222Z,13.92
2022-10-22T05:59:46.358Z,13.84
2022-10-22T06:00:46.501Z,13.92
2022-10-22T06:01:46.725Z,13.92
2022-10-22T06:02:46.768Z,13.679999
2022-10-22T06:03:46.937Z,13.84
2022-10-22T06:04:47.080Z,13.84
2022-10-22T06:05:47.220Z,13.679999
2022-10-22T06:06:47.328Z,13.679999
2022-10-22T06:07:47.435Z,13.92
2022-10-22T06:08:47.633Z,13.84
2022-10-22T06:09:47.733Z,13.92
2022-10-22T06:10:47.886Z,13.92
2022-10-22T06:11:48.047Z,13.92
2022-10-22T06:12:48.194Z,14.08
2022-10-22T06:13:48.342Z,14
2022-10-22T06:14:48.485Z,13.84
2022-10-22T06:15:48.629Z,13.84
2022-10-22T06:16:48.748Z,13.84
2022-10-22T06:17:48.894Z,13.679999
2022-10-22T06:18:49.049Z,13.599999
2022-10-22T06:19:49.197Z,13.84
2022-10-22T06:20:49.351Z,13.84
2022-10-22T06:21:49.516Z,13.92
2022-10-22T06:22:49.609Z,13.84
2022-10-22T06:23:49.755Z,13.84
2022-10-22T06:24:49.902Z,13.92
2022-10-22T06:25:50.009Z,13.84
2022-10-22T06:26:50.117Z,13.84
2022-10-22T06:27:50.264Z,13.84
2022-10-22T06:28:50.417Z,13.84
2022-10-22T06:29:50.572Z,13.679999
2022-10-22T06:30:50.661Z,13.599999
2022-10-22T06:31:50.843Z,13.599999
2022-10-22T06:32:50.970Z,13.52
2022-10-22T06:33:51.120Z,13.44
2022-10-22T06:34:51.271Z,13.28
2022-10-22T06:35:51.365Z,13.44
2022-10-22T06:36:51.529Z,13.52
2022-10-22T06:37:51.682Z,13.52
2022-10-22T06:38:51.836Z,13.44
2022-10-22T06:39:51.990Z,13.52
2022-10-22T06:40:52.108Z,13.52
2022-10-22T06:41:52.184Z,13.599999
2022-10-22T06:42:52.299Z,13.52
2022-10-22T06:43:52.436Z,13.44
2022-10-22T06:44:52.589Z,13.44
2022-10-22T06:45:52.679Z,13.44
2022-10-22T06:46:52.851Z,13.28
2022-10-22T06:47:53.008Z,13.28
2022-10-22T06:48:53.219Z,13.44
2022-10-22T06:49:53.399Z,13.44
2022-10-22T06:50:53.515Z,13.44
2022-10-22T06:51:53.655Z,13.28
2022-10-22T06:52:53.809Z,13.44
2022-10-22T06:53:53.968Z,13.28
2022-10-22T06:54:54.143Z,13.28
2022-10-22T06:55:54.350Z,13.28
2022-10-22T06:56:54.472Z,13.28
2022-10-22T06:57:54.607Z,13.2
2022-10-22T06:58:54.766Z,13.2
2022-10-22T06:59:54.916Z,13.2
2022-10-22T07:00:55.101Z,13.2
2022-10-22T07:01:55.156Z,13.2
2022-10-22T07:02:56.396Z,13.12
2022-10-22T07:03:55.377Z,13.04
2022-10-22T07:04:55.527Z,13.04
2022-10-22T07:05:55.684Z,13.12
2022-10-22T07:06:55.828Z,12.88
2022-10-22T07:07:55.977Z,12.88
2022-10-22T07:08:56.277Z,13.04
2022-10-22T07:09:56.235Z,13.04
2022-10-22T07:10:56.380Z,12.88
2022-10-22T07:11:56.482Z,13.04
2022-10-22T07:12:56.644Z,13.04
2022-10-22T07:13:56.745Z,13.04
2022-10-22T07:14:56.887Z,13.12
2022-10-22T07:15:56.983Z,13.12
2022-10-22T07:16:57.147Z,13.04
2022-10-22T07:17:57.291Z,13.12
2022-10-22T07:18:57.449Z,13.12
2022-10-22T07:19:57.559Z,13.04
2022-10-22T07:20:57.701Z,13.04
2022-10-22T07:21:57.860Z,13.04
2022-10-22T07:22:58.025Z,12.88
2022-10-22T07:23:58.172Z,13.04
2022-10-22T07:24:58.311Z,13.04
2022-10-22T07:25:58.458Z,12.88
2022-10-22T07:26:58.610Z,12.88
2022-10-22T07:27:58.712Z,12.88
2022-10-22T07:28:58.814Z,12.88
2022-10-22T07:29:58.961Z,12.799999
2022-10-22T07:30:59.066Z,12.88
2022-10-22T07:31:59.224Z,12.799999
2022-10-22T07:32:59.369Z,12.88
2022-10-22T07:33:59.526Z,12.88
2022-10-22T07:34:59.674Z,12.88
2022-10-22T07:35:59.779Z,12.799999
2022-10-22T07:36:59.926Z,12.799999
2022-10-22T07:38:00.098Z,12.799999
2022-10-22T07:39:00.235Z,12.799999
2022-10-22T07:40:02.809Z,12.88
2022-10-22T07:41:00.550Z,12.88
2022-10-22T07:42:00.688Z,13.04
2022-10-22T07:43:00.839Z,12.88
2022-10-22T07:44:00.996Z,12.88
2022-10-22T07:45:01.141Z,13.04
2022-10-22T07:46:01.232Z,12.88
2022-10-22T07:47:01.388Z,12.88
2022-10-22T07:48:01.551Z,12.88
2022-10-22T07:49:01.698Z,12.799999
2022-10-22T07:50:01.856Z,12.799999
2022-10-22T07:51:02.000Z,12.799999
2022-10-22T07:52:02.155Z,12.799999
2022-10-22T07:53:02.296Z,12.799999
2022-10-22T07:54:02.445Z,12.799999
2022-10-22T07:55:02.607Z,12.88
2022-10-22T07:56:03.330Z,12.88
2022-10-22T07:57:02.851Z,12.88
2022-10-22T07:58:02.996Z,12.799999
2022-10-22T07:59:03.173Z,12.799999
2022-10-22T08:00:03.315Z,12.719999
2022-10-22T08:01:03.489Z,12.719999
2022-10-22T08:02:03.562Z,12.719999
2022-10-22T08:03:03.714Z,12.719999
2022-10-22T08:04:03.873Z,12.719999
2022-10-22T08:05:04.031Z,12.719999
2022-10-22T08:06:04.171Z,12.719999
2022-10-22T08:07:04.317Z,12.719999
2022-10-22T08:08:04.504Z,12.719999
2022-10-22T08:09:04.724Z,12.719999
2022-10-22T08:10:04.857Z,12.799999
2022-10-22T08:11:04.888Z,12.719999
2022-10-22T08:12:04.977Z,12.799999
2022-10-22T08:13:05.127Z,12.799999
2022-10-22T08:14:05.287Z,12.719999
2022-10-22T08:15:05.439Z,12.719999
2022-10-22T08:16:05.575Z,12.639999
2022-10-22T08:17:05.736Z,12.719999
2022-10-22T08:18:05.884Z,12.719999
2022-10-22T08:19:06.038Z,12.719999
2022-10-22T08:20:06.190Z,12.719999
2022-10-22T08:21:06.339Z,12.799999
2022-10-22T08:22:06.502Z,12.88
2022-10-22T08:23:06.651Z,13.12
2022-10-22T08:25:07.667Z,13.04
2022-10-22T08:26:07.041Z,13.12
2022-10-22T08:27:07.207Z,13.04
2022-10-22T08:28:07.363Z,13.04
2022-10-22T08:29:07.515Z,13.04
2022-10-22T08:30:07.658Z,13.04
2022-10-22T08:31:07.891Z,13.04
2022-10-22T08:32:07.964Z,13.04
2022-10-22T08:33:08.067Z,13.12
2022-10-22T08:34:08.220Z,13.12
2022-10-22T08:35:08.317Z,13.12
2022-10-22T08:36:08.473Z,13.28
2022-10-22T08:37:08.627Z,13.28
2022-10-22T08:38:08.787Z,13.28
2022-10-22T08:39:08.908Z,13.44
2022-10-22T08:40:09.074Z,13.44
2022-10-22T08:41:09.221Z,13.44
2022-10-22T08:42:09.384Z,13.44
2022-10-22T08:43:09.533Z,13.44
2022-10-22T08:44:09.700Z,13.28
2022-10-22T08:45:09.831Z,13.44
2022-10-22T08:46:09.993Z,13.44
2022-10-22T08:47:10.144Z,13.52
2022-10-22T08:48:10.291Z,13.599999
2022-10-22T08:49:10.447Z,13.599999
2022-10-22T08:50:10.604Z,13.84
2022-10-22T08:51:10.748Z,13.679999
2022-10-22T08:52:10.905Z,13.84
2022-10-22T08:53:11.004Z,14
2022-10-22T08:54:11.158Z,13.92
2022-10-22T08:55:11.306Z,13.679999
2022-10-22T08:56:11.410Z,13.92
2022-10-22T08:57:11.555Z,13.92
2022-10-22T08:58:11.714Z,14.08
2022-10-22T08:59:11.867Z,14
2022-10-22T09:00:12.015Z,13.92
2022-10-22T09:01:12.110Z,14.08
2022-10-22T09:02:12.218Z,14.24
2022-10-22T09:03:12.379Z,14.32
2022-10-22T09:04:12.531Z,14.639999
2022-10-22T09:05:12.673Z,14.639999
2022-10-22T09:06:12.830Z,14.719999
2022-10-22T09:07:12.973Z,14.719999
2022-10-22T09:08:13.125Z,15.04
2022-10-22T09:09:13.371Z,15.04
2022-10-22T09:10:13.436Z,15.04
2022-10-22T09:11:13.541Z,15.12
2022-10-22T09:12:16.379Z,15.2
2022-10-22T09:13:13.841Z,15.2
2022-10-22T09:15:15.005Z,15.52
2022-10-22T09:16:14.286Z,15.599999
2022-10-22T09:17:14.459Z,15.599999
2022-10-22T09:18:14.589Z,15.2
2022-10-22T09:19:14.740Z,15.599999
2022-10-22T09:20:14.890Z,15.28
2022-10-22T09:21:15.040Z,15.2
2022-10-22T09:22:15.142Z,15.28
2022-10-22T09:23:15.291Z,15.28
2022-10-22T09:24:15.443Z,15.12
2022-10-22T09:25:15.594Z,15.04
2022-10-22T09:26:15.752Z,15.04
2022-10-22T09:27:15.851Z,15.2
2022-10-22T09:28:16.001Z,15.2
2022-10-22T09:29:16.152Z,15.12
2022-10-22T09:30:16.301Z,15.04
2022-10-22T09:31:16.457Z,15.12
2022-10-22T09:32:16.608Z,14.88
2022-10-22T09:33:19.028Z,14.88
2022-10-22T09:34:16.867Z,15.04
2022-10-22T09:35:17.022Z,15.2
2022-10-22T09:36:17.175Z,15.12
2022-10-22T09:37:17.324Z,14.88
2022-10-22T09:38:17.478Z,15.12
2022-10-22T09:39:17.628Z,15.28
2022-10-22T09:40:17.785Z,15.2
2022-10-22T09:41:17.933Z,15.2
2022-10-22T09:42:18.078Z,15.12
2022-10-22T09:43:18.235Z,15.2
2022-10-22T09:44:18.388Z,15.28
2022-10-22T09:45:18.540Z,15.04
2022-10-22T09:46:18.680Z,15.04
2022-10-22T09:47:18.794Z,15.04
2022-10-22T09:48:18.947Z,15.04
2022-10-22T09:49:19.104Z,14.719999
2022-10-22T09:50:19.241Z,14.719999
2022-10-22T09:51:19.359Z,14.639999
2022-10-22T09:52:19.505Z,15.04
2022-10-22T09:53:19.662Z,14.88
2022-10-22T09:54:19.804Z,14.799999
2022-10-22T09:55:19.946Z,14.799999
2022-10-22T09:56:20.112Z,15.04
2022-10-22T09:57:20.261Z,15.44
2022-10-22T09:58:20.410Z,15.28
2022-10-22T09:59:20.511Z,15.44
2022-10-22T10:00:20.675Z,15.44
2022-10-22T10:01:20.807Z,15.2
2022-10-22T10:02:37.381Z,15.44
2022-10-22T10:03:21.157Z,15.12
2022-10-22T10:04:21.310Z,15.12
2022-10-22T10:05:21.382Z,15.12
2022-10-22T10:06:21.512Z,15.2
2022-10-22T10:07:21.625Z,15.52
2022-10-22T10:08:21.784Z,15.839999
2022-10-22T10:09:21.973Z,16
2022-10-22T10:10:22.031Z,15.92
2022-10-22T10:11:25.571Z,16.24
2022-10-22T10:12:22.337Z,16.24
2022-10-22T10:13:22.492Z,16.4
2022-10-22T10:14:22.637Z,16.24
2022-10-22T10:15:22.790Z,16.48
2022-10-22T10:16:22.930Z,16.32
2022-10-22T10:17:23.093Z,16.8
2022-10-22T10:18:23.250Z,17.2
2022-10-22T10:19:23.398Z,17.12
2022-10-22T10:20:23.500Z,17.12
2022-10-22T10:21:23.641Z,17.76
2022-10-22T10:22:23.746Z,18.88
2022-10-22T10:23:24.612Z,19.68
2022-10-22T10:24:24.070Z,20.64
2022-10-22T10:25:24.221Z,20
2022-10-22T10:26:24.316Z,20.64
2022-10-22T10:27:24.452Z,20.08
2022-10-22T10:28:24.614Z,19.68
2022-10-22T10:29:24.794Z,20.4
2022-10-22T10:30:24.915Z,19.92
2022-10-22T10:31:25.065Z,19.44
2022-10-22T10:32:25.217Z,19.28
2022-10-22T10:33:25.370Z,18.48
2022-10-22T10:34:25.519Z,18.64
2022-10-22T10:35:25.677Z,18.48
2022-10-22T10:36:25.819Z,18.4
2022-10-22T10:37:25.966Z,18.08
2022-10-22T10:38:27.396Z,18.08
2022-10-22T10:39:26.246Z,17.68
2022-10-22T10:40:26.393Z,17.04
2022-10-22T10:41:26.531Z,17.12
2022-10-22T10:42:26.684Z,16.8
2022-10-22T10:43:26.850Z,17.04
2022-10-22T10:44:26.940Z,16.88
2022-10-22T10:45:27.082Z,17.2
2022-10-22T10:46:27.228Z,16.72
2022-10-22T10:47:27.338Z,16.64
2022-10-22T10:48:27.832Z,16.72
2022-10-22T10:49:27.969Z,16.48
2022-10-22T10:50:27.783Z,16.64
2022-10-22T10:51:27.900Z,16.48
2022-10-22T10:52:28.013Z,16.48
2022-10-22T10:53:28.157Z,17.2
2022-10-22T10:54:28.327Z,17.04
2022-10-22T10:55:28.397Z,17.2
2022-10-22T10:56:28.567Z,17.28
2022-10-22T10:57:28.711Z,17.44
2022-10-22T10:58:28.872Z,17.52
2022-10-22T10:59:28.969Z,17.76
2022-10-22T11:00:29.127Z,17.76
2022-10-22T11:01:29.276Z,18.32
2022-10-22T11:02:29.412Z,17.68
2022-10-22T11:03:29.561Z,18
2022-10-22T11:04:29.721Z,18.08
2022-10-22T11:05:29.869Z,17.76
2022-10-22T11:06:30.022Z,17.92
2022-10-22T11:07:34.432Z,18
2022-10-22T11:08:30.330Z,17.76
2022-10-22T11:09:30.484Z,18.4
2022-10-22T11:10:30.635Z,18.72
2022-10-22T11:11:30.782Z,18.88
2022-10-22T11:12:30.924Z,18.88
2022-10-22T11:13:31.107Z,18.08
2022-10-22T11:14:31.241Z,19.2
2022-10-22T11:15:31.382Z,19.04
2022-10-22T11:16:31.533Z,18.88
2022-10-22T11:17:31.634Z,18.64
2022-10-22T11:18:31.737Z,18.88
2022-10-22T11:19:50.070Z,19.76
2022-10-22T11:20:32.041Z,20.48
2022-10-22T11:21:32.209Z,20.88
2022-10-22T11:22:32.345Z,23.04
2022-10-22T11:23:32.501Z,23.12
2022-10-22T11:24:32.655Z,22.4
2022-10-22T11:25:32.793Z,24.48
2022-10-22T11:26:32.963Z,24.48
2022-10-22T11:27:33.117Z,23.44
2022-10-22T11:28:33.274Z,24
2022-10-22T11:29:33.417Z,24.32
2022-10-22T11:30:33.575Z,24.32
2022-10-22T11:31:33.707Z,23.28
2022-10-22T11:32:33.893Z,23.12
2022-10-22T11:33:34.028Z,22.64
2022-10-22T11:34:34.546Z,24.4
2022-10-22T11:35:34.265Z,23.2
2022-10-22T11:36:34.392Z,23.28
2022-10-22T11:37:34.522Z,22.88
2022-10-22T11:38:35.010Z,22.48
2022-10-22T11:39:34.772Z,23.12
2022-10-22T11:40:34.921Z,23.04
2022-10-22T11:41:35.024Z,22.72
2022-10-22T11:42:35.184Z,22.64
2022-10-22T11:43:35.280Z,22.08
2022-10-22T11:44:35.441Z,22.48
2022-10-22T11:45:35.534Z,22.4
2022-10-22T11:46:35.629Z,23.2
2022-10-22T11:47:35.755Z,23.2
2022-10-22T11:48:35.889Z,22.88
2022-10-22T11:49:36.054Z,21.84
2022-10-22T11:50:36.202Z,22.64
2022-10-22T11:51:36.358Z,23.44
2022-10-22T11:52:36.499Z,22.72
2022-10-22T11:53:36.596Z,21.84
2022-10-22T11:54:36.759Z,22.64
2022-10-22T11:55:36.906Z,23.04
2022-10-22T11:56:37.059Z,22.88
2022-10-22T11:57:37.205Z,23.04
2022-10-22T11:58:37.362Z,22.48
2022-10-22T11:59:37.555Z,22.08
2022-10-22T12:00:37.669Z,20.8
2022-10-22T12:01:37.812Z,20.64
2022-10-22T12:02:38.083Z,20.8
2022-10-22T12:03:38.007Z,20.08
2022-10-22T12:04:38.287Z,20.48
2022-10-22T12:05:38.272Z,20.8
2022-10-22T12:06:38.431Z,20.08
2022-10-22T12:07:38.590Z,21.12
2022-10-22T12:08:38.780Z,20.88
2022-10-22T12:09:38.888Z,20
2022-10-22T12:10:39.020Z,20.08
2022-10-22T12:11:39.186Z,20.4
2022-10-22T12:12:39.634Z,19.6
2022-10-22T12:13:39.435Z,20.32
2022-10-22T12:14:39.584Z,20.32
2022-10-22T12:15:39.681Z,20.24
2022-10-22T12:16:56.027Z,20.4
2022-10-22T12:17:39.941Z,20.24
2022-10-22T12:18:40.056Z,19.6
2022-10-22T12:19:40.202Z,19.68
2022-10-22T12:20:40.346Z,19.92
2022-10-22T12:21:40.501Z,20.4
2022-10-22T12:22:40.908Z,20.4
2022-10-22T12:23:40.815Z,20.24
2022-10-22T12:24:40.968Z,19.92
2022-10-22T12:25:41.117Z,19.44
2022-10-22T12:26:41.204Z,19.28
2022-10-22T12:27:42.012Z,19.2
2022-10-22T12:28:41.800Z,19.44
2022-10-22T12:29:41.827Z,19.44
2022-10-22T12:30:41.765Z,19.28
2022-10-22T12:31:41.909Z,19.52
2022-10-22T12:32:42.010Z,18.8
2022-10-22T12:33:42.171Z,18.64
2022-10-22T12:34:42.329Z,18.8
2022-10-22T12:35:42.377Z,18.4
2022-10-22T12:36:42.520Z,18.08
2022-10-22T12:37:42.961Z,18
2022-10-22T12:38:42.831Z,18.32
2022-10-22T12:39:42.980Z,18.08
2022-10-22T12:40:44.522Z,18.32
2022-10-22T12:41:43.296Z,18.72
2022-10-22T12:42:43.448Z,19.2
2022-10-22T12:43:43.583Z,18.8
2022-10-22T12:44:43.752Z,19.2